sensor_id;sensor_type;location;lat;lon;timestamp;pressure;altitude;pressure_sealevel;temperature;humidity
12664;BME280;6396;58.490;15.528;2023-02-21T00:05:54;97621.75;;;0.27;100.00
12664;BME280;6396;58.490;15.528;2023-02-21T00:43:06;97672.66;;;0.80;100.00
12664;BME280;6396;58.490;15.528;2023-02-21T00:45:51;97700.16;;;1.10;100.00
12664;BME280;6396;58.490;15.528;2023-02-21T00:48:35;97719.91;;;0.65;100.00
12664;BME280;6396;58.490;15.528;2023-02-21T00:51:20;97654.69;;;0.74;100.00
12664;BME280;6396;58.490;15.528;2023-02-21T00:54:04;97740.81;;;1.11;100.00
12664;BME280;6396;58.490;15.528;2023-02-21T00:56:51;98529.13;;;5.67;100.00
12664;BME280;6396;58.490;15.528;2023-02-21T00:59:35;97990.25;;;2.60;100.00
12664;BME280;6396;58.490;15.528;2023-02-21T01:05:45;98524.31;;;5.57;100.00
12664;BME280;6396;58.490;15.528;2023-02-21T01:08:36;97714.03;;;0.84;100.00
12664;BME280;6396;58.490;15.528;2023-02-21T01:11:21;97724.94;;;0.69;100.00
12664;BME280;6396;58.490;15.528;2023-02-21T01:14:26;97872.47;;;0.83;100.00
12664;BME280;6396;58.490;15.528;2023-02-21T01:17:13;97844.28;;;0.71;100.00
12664;BME280;6396;58.490;15.528;2023-02-21T01:20:00;97548.25;;;-0.77;100.00
12664;BME280;6396;58.490;15.528;2023-02-21T01:22:45;97699.03;;;0.17;100.00
12664;BME280;6396;58.490;15.528;2023-02-21T01:25:30;97963.81;;;1.49;100.00
12664;BME280;6396;58.490;15.528;2023-02-21T01:28:15;98214.72;;;3.43;100.00
12664;BME280;6396;58.490;15.528;2023-02-21T01:31:03;98000.22;;;1.22;100.00
12664;BME280;6396;58.490;15.528;2023-02-21T01:33:47;98435.25;;;4.01;100.00
12664;BME280;6396;58.490;15.528;2023-02-21T01:36:31;97829.16;;;0.57;100.00
12664;BME280;6396;58.490;15.528;2023-02-21T01:39:16;97779.09;;;0.28;100.00
12664;BME280;6396;58.490;15.528;2023-02-21T01:42:03;98577.03;;;5.25;100.00
12664;BME280;6396;58.490;15.528;2023-02-21T01:47:50;97874.41;;;0.49;100.00
12664;BME280;6396;58.490;15.528;2023-02-21T01:50:35;98291.06;;;2.72;100.00
12664;BME280;6396;58.490;15.528;2023-02-21T01:53:22;97853.78;;;0.17;100.00
12664;BME280;6396;58.490;15.528;2023-02-21T01:56:08;97726.16;;;-0.22;100.00
12664;BME280;6396;58.490;15.528;2023-02-21T01:58:55;97692.16;;;-0.12;100.00
12664;BME280;6396;58.490;15.528;2023-02-21T02:01:45;97862.38;;;0.46;100.00
12664;BME280;6396;58.490;15.528;2023-02-21T02:04:34;98594.66;;;5.20;100.00
12664;BME280;6396;58.490;15.528;2023-02-21T02:07:19;97838.03;;;0.23;100.00
12664;BME280;6396;58.490;15.528;2023-02-21T02:10:04;98430.97;;;3.23;100.00
12664;BME280;6396;58.490;15.528;2023-02-21T02:13:24;98608.84;;;5.14;100.00
12664;BME280;6396;58.490;15.528;2023-02-21T02:30:20;97808.63;;;-0.06;100.00
12664;BME280;6396;58.490;15.528;2023-02-21T02:33:21;97884.06;;;-0.47;100.00
12664;BME280;6396;58.490;15.528;2023-02-21T02:35:58;97958.00;;;-0.02;100.00
12664;BME280;6396;58.490;15.528;2023-02-21T02:38:33;97882.00;;;-0.34;100.00
12664;BME280;6396;58.490;15.528;2023-02-21T02:41:08;98403.81;;;3.03;100.00
12664;BME280;6396;58.490;15.528;2023-02-21T02:43:43;98191.91;;;1.70;100.00
12664;BME280;6396;58.490;15.528;2023-02-21T02:46:16;98571.50;;;3.86;100.00
12664;BME280;6396;58.490;15.528;2023-02-21T02:48:48;98356.13;;;2.73;100.00
12664;BME280;6396;58.490;15.528;2023-02-21T02:51:18;97870.75;;;-0.33;100.00
12664;BME280;6396;58.490;15.528;2023-02-21T02:53:46;97877.81;;;-0.08;100.00
12664;BME280;6396;58.490;15.528;2023-02-21T02:56:14;98222.47;;;1.91;100.00
12664;BME280;6396;58.490;15.528;2023-02-21T02:58:45;98129.47;;;1.15;100.00
12664;BME280;6396;58.490;15.528;2023-02-21T03:01:26;98795.94;;;4.71;100.00
12664;BME280;6396;58.490;15.528;2023-02-21T03:04:13;98114.81;;;1.12;100.00
12664;BME280;6396;58.490;15.528;2023-02-21T03:06:50;97930.06;;;-0.55;100.00
12664;BME280;6396;58.490;15.528;2023-02-21T03:12:17;97873.78;;;-1.16;100.00
12664;BME280;6396;58.490;15.528;2023-02-21T03:14:56;98391.41;;;2.56;100.00
12664;BME280;6396;58.490;15.528;2023-02-21T03:17:26;98626.34;;;3.57;100.00
12664;BME280;6396;58.490;15.528;2023-02-21T03:19:55;98719.78;;;4.29;100.00
12664;BME280;6396;58.490;15.528;2023-02-21T03:22:27;98273.16;;;1.48;100.00
12664;BME280;6396;58.490;15.528;2023-02-21T03:24:56;98151.03;;;0.22;100.00
12664;BME280;6396;58.490;15.528;2023-02-21T03:27:24;98768.56;;;4.56;100.00
12664;BME280;6396;58.490;15.528;2023-02-21T03:29:53;98765.25;;;4.51;100.00
12664;BME280;6396;58.490;15.528;2023-02-21T03:32:26;98253.34;;;1.44;100.00
12664;BME280;6396;58.490;15.528;2023-02-21T03:34:54;97745.56;;;-1.62;100.00
12664;BME280;6396;58.490;15.528;2023-02-21T03:37:30;98661.50;;;3.73;100.00
12664;BME280;6396;58.490;15.528;2023-02-21T03:39:58;98004.06;;;-0.45;100.00
12664;BME280;6396;58.490;15.528;2023-02-21T03:42:25;98770.88;;;4.10;100.00
12664;BME280;6396;58.490;15.528;2023-02-21T03:44:52;98856.78;;;4.48;100.00
12664;BME280;6396;58.490;15.528;2023-02-21T03:47:19;98238.84;;;1.04;100.00
12664;BME280;6396;58.490;15.528;2023-02-21T03:49:46;98822.97;;;4.43;100.00
12664;BME280;6396;58.490;15.528;2023-02-21T03:52:13;97989.06;;;-0.66;100.00
12664;BME280;6396;58.490;15.528;2023-02-21T03:54:42;98573.75;;;2.20;100.00
12664;BME280;6396;58.490;15.528;2023-02-21T03:57:09;98035.63;;;-0.29;100.00
12664;BME280;6396;58.490;15.528;2023-02-21T03:59:36;98322.22;;;1.29;100.00
12664;BME280;6396;58.490;15.528;2023-02-21T04:02:04;98303.81;;;1.04;100.00
12664;BME280;6396;58.490;15.528;2023-02-21T04:04:31;98885.09;;;4.32;100.00
12664;BME280;6396;58.490;15.528;2023-02-21T04:06:57;98895.50;;;4.35;100.00
12664;BME280;6396;58.490;15.528;2023-02-21T04:09:26;98022.53;;;-1.33;100.00
12664;BME280;6396;58.490;15.528;2023-02-21T04:15:14;98941.94;;;4.24;100.00
12664;BME280;6396;58.490;15.528;2023-02-21T04:17:41;98162.25;;;-0.51;100.00
12664;BME280;6396;58.490;15.528;2023-02-21T04:20:09;98175.41;;;-0.22;100.00
12664;BME280;6396;58.490;15.528;2023-02-21T04:22:36;98794.22;;;3.56;100.00
12664;BME280;6396;58.490;15.528;2023-02-21T04:25:05;98391.88;;;0.78;100.00
12664;BME280;6396;58.490;15.528;2023-02-21T04:27:32;98386.22;;;0.98;100.00
12664;BME280;6396;58.490;15.528;2023-02-21T04:40:22;98935.50;;;4.05;100.00
12664;BME280;6396;58.490;15.528;2023-02-21T04:43:02;98134.34;;;-1.18;100.00
12664;BME280;6396;58.490;15.528;2023-02-21T04:45:43;98500.53;;;1.35;100.00
12664;BME280;6396;58.490;15.528;2023-02-21T04:48:21;99034.72;;;4.05;100.00
12664;BME280;6396;58.490;15.528;2023-02-21T04:50:51;98422.63;;;0.95;100.00
12664;BME280;6396;58.490;15.528;2023-02-21T04:53:18;98205.25;;;-0.83;100.00
12664;BME280;6396;58.490;15.528;2023-02-21T04:55:47;98419.78;;;0.69;100.00
12664;BME280;6396;58.490;15.528;2023-02-21T04:58:20;99028.69;;;4.03;100.00
12664;BME280;6396;58.490;15.528;2023-02-21T05:00:47;98647.75;;;2.10;100.00
12664;BME280;6396;58.490;15.528;2023-02-21T05:03:14;98802.56;;;2.33;100.00
12664;BME280;6396;58.490;15.528;2023-02-21T05:05:42;97931.63;;;-2.42;100.00
12664;BME280;6396;58.490;15.528;2023-02-21T05:08:09;98198.63;;;-0.96;100.00
12664;BME280;6396;58.490;15.528;2023-02-21T05:10:37;98222.97;;;-1.05;100.00
12664;BME280;6396;58.490;15.528;2023-02-21T05:13:05;98987.81;;;4.02;100.00
12664;BME280;6396;58.490;15.528;2023-02-21T05:15:32;98575.47;;;0.73;100.00
12664;BME280;6396;58.490;15.528;2023-02-21T05:17:59;99035.69;;;4.01;100.00
12664;BME280;6396;58.490;15.528;2023-02-21T05:20:26;98829.09;;;2.85;100.00
12664;BME280;6396;58.490;15.528;2023-02-21T05:22:53;98495.69;;;0.80;100.00
12664;BME280;6396;58.490;15.528;2023-02-21T05:25:38;98161.06;;;-1.64;100.00
12664;BME280;6396;58.490;15.528;2023-02-21T05:28:21;98162.03;;;-1.23;100.00
12664;BME280;6396;58.490;15.528;2023-02-21T05:30:48;98658.19;;;1.74;100.00
12664;BME280;6396;58.490;15.528;2023-02-21T05:33:15;98717.69;;;2.25;100.00
12664;BME280;6396;58.490;15.528;2023-02-21T05:35:42;98273.34;;;-1.26;100.00
12664;BME280;6396;58.490;15.528;2023-02-21T05:38:11;98744.75;;;2.17;100.00
12664;BME280;6396;58.490;15.528;2023-02-21T05:40:38;98591.63;;;0.86;100.00
12664;BME280;6396;58.490;15.528;2023-02-21T05:43:04;98759.38;;;2.22;100.00
12664;BME280;6396;58.490;15.528;2023-02-21T05:45:33;98724.47;;;1.96;100.00
12664;BME280;6396;58.490;15.528;2023-02-21T05:47:59;99088.81;;;4.00;100.00
12664;BME280;6396;58.490;15.528;2023-02-21T05:50:27;98254.47;;;-0.85;100.00
12664;BME280;6396;58.490;15.528;2023-02-21T05:52:57;98593.53;;;1.19;100.00
12664;BME280;6396;58.490;15.528;2023-02-21T05:55:31;98244.44;;;-1.50;100.00
12664;BME280;6396;58.490;15.528;2023-02-21T05:58:04;98149.59;;;-1.98;100.00
12664;BME280;6396;58.490;15.528;2023-02-21T06:00:32;98227.44;;;-1.63;100.00
12664;BME280;6396;58.490;15.528;2023-02-21T06:03:00;99081.94;;;3.96;100.00
12664;BME280;6396;58.490;15.528;2023-02-21T06:05:27;98805.13;;;2.34;100.00
12664;BME280;6396;58.490;15.528;2023-02-21T06:07:53;98580.56;;;0.78;100.00
12664;BME280;6396;58.490;15.528;2023-02-21T06:10:21;98377.25;;;-0.96;100.00
12664;BME280;6396;58.490;15.528;2023-02-21T06:13:23;98301.50;;;-1.58;100.00
12664;BME280;6396;58.490;15.528;2023-02-21T06:16:22;98434.91;;;-0.87;100.00
12664;BME280;6396;58.490;15.528;2023-02-21T06:18:52;98306.53;;;-1.50;100.00
12664;BME280;6396;58.490;15.528;2023-02-21T06:21:24;98560.91;;;0.65;100.00
12664;BME280;6396;58.490;15.528;2023-02-21T06:23:52;98623.00;;;0.75;100.00
12664;BME280;6396;58.490;15.528;2023-02-21T06:26:20;98896.22;;;2.36;100.00
12664;BME280;6396;58.490;15.528;2023-02-21T06:28:48;98607.41;;;0.78;100.00
12664;BME280;6396;58.490;15.528;2023-02-21T06:31:17;98843.56;;;1.80;100.00
12664;BME280;6396;58.490;15.528;2023-02-21T06:33:44;98474.94;;;-0.53;100.00
12664;BME280;6396;58.490;15.528;2023-02-21T06:36:13;98824.31;;;1.90;100.00
12664;BME280;6396;58.490;15.528;2023-02-21T06:38:43;98892.28;;;2.16;100.00
12664;BME280;6396;58.490;15.528;2023-02-21T06:41:10;98203.91;;;-2.00;100.00
12664;BME280;6396;58.490;15.528;2023-02-21T06:43:37;98913.34;;;2.04;100.00
12664;BME280;6396;58.490;15.528;2023-02-21T06:46:04;99055.31;;;3.07;100.00
12664;BME280;6396;58.490;15.528;2023-02-21T06:48:32;98519.25;;;-0.71;100.00
12664;BME280;6396;58.490;15.528;2023-02-21T06:50:59;98741.63;;;0.75;100.00
12664;BME280;6396;58.490;15.528;2023-02-21T06:53:44;98403.72;;;-1.34;100.00
12664;BME280;6396;58.490;15.528;2023-02-21T06:56:20;99202.22;;;3.87;100.00
12664;BME280;6396;58.490;15.528;2023-02-21T06:58:57;98638.28;;;0.46;100.00
12664;BME280;6396;58.490;15.528;2023-02-21T07:01:50;99332.75;;;3.87;100.00
12664;BME280;6396;58.490;15.528;2023-02-21T07:04:24;98299.94;;;-1.69;100.00
12664;BME280;6396;58.490;15.528;2023-02-21T07:21:01;99307.00;;;4.12;100.00
12664;BME280;6396;58.490;15.528;2023-02-21T07:23:28;99128.34;;;3.06;100.00
12664;BME280;6396;58.490;15.528;2023-02-21T07:25:55;98640.59;;;-0.41;100.00
12664;BME280;6396;58.490;15.528;2023-02-21T07:28:22;98410.28;;;-1.71;100.00
12664;BME280;6396;58.490;15.528;2023-02-21T07:43:30;98492.63;;;-1.40;100.00
12664;BME280;6396;58.490;15.528;2023-02-21T07:46:37;99365.91;;;4.26;100.00
12664;BME280;6396;58.490;15.528;2023-02-21T07:49:12;98884.53;;;1.22;100.00
12664;BME280;6396;58.490;15.528;2023-02-21T07:51:39;99154.66;;;2.47;100.00
12664;BME280;6396;58.490;15.528;2023-02-21T07:54:06;99382.56;;;4.61;100.00
12664;BME280;6396;58.490;15.528;2023-02-21T07:56:41;98659.84;;;-0.01;100.00
12664;BME280;6396;58.490;15.528;2023-02-21T07:59:12;99114.59;;;3.39;100.00
12664;BME280;6396;58.490;15.528;2023-02-21T08:01:38;98986.50;;;2.76;100.00
12664;BME280;6396;58.490;15.528;2023-02-21T08:04:05;99151.22;;;3.74;100.00
12664;BME280;6396;58.490;15.528;2023-02-21T08:06:33;99454.47;;;5.16;100.00
12664;BME280;6396;58.490;15.528;2023-02-21T08:09:01;98878.44;;;2.14;100.00
12664;BME280;6396;58.490;15.528;2023-02-21T08:11:37;98631.94;;;0.62;100.00
12664;BME280;6396;58.490;15.528;2023-02-21T08:14:19;99200.63;;;4.18;100.00
12664;BME280;6396;58.490;15.528;2023-02-21T08:16:49;98674.81;;;1.27;100.00
12664;BME280;6396;58.490;15.528;2023-02-21T08:19:22;98649.63;;;0.86;100.00
12664;BME280;6396;58.490;15.528;2023-02-21T08:21:49;99275.19;;;4.70;100.00
12664;BME280;6396;58.490;15.528;2023-02-21T08:24:17;99188.56;;;3.76;100.00
12664;BME280;6396;58.490;15.528;2023-02-21T08:26:45;99360.56;;;5.07;100.00
12664;BME280;6396;58.490;15.528;2023-02-21T08:29:12;99469.50;;;5.45;100.00
12664;BME280;6396;58.490;15.528;2023-02-21T08:31:42;99508.09;;;5.72;100.00
12664;BME280;6396;58.490;15.528;2023-02-21T08:34:12;99520.47;;;5.65;100.00
12664;BME280;6396;58.490;15.528;2023-02-21T08:36:40;99524.22;;;5.55;100.00
12664;BME280;6396;58.490;15.528;2023-02-21T08:39:08;99548.00;;;5.46;100.00
12664;BME280;6396;58.490;15.528;2023-02-21T08:41:36;99549.78;;;5.44;100.00
12664;BME280;6396;58.490;15.528;2023-02-21T08:44:04;99430.75;;;4.47;100.00
12664;BME280;6396;58.490;15.528;2023-02-21T08:46:31;99625.47;;;5.14;100.00
12664;BME280;6396;58.490;15.528;2023-02-21T08:49:00;99585.41;;;5.12;100.00
12664;BME280;6396;58.490;15.528;2023-02-21T08:51:27;99595.97;;;5.07;100.00
12664;BME280;6396;58.490;15.528;2023-02-21T08:53:55;99655.34;;;5.04;100.00
12664;BME280;6396;58.490;15.528;2023-02-21T08:56:23;99499.16;;;4.23;100.00
12664;BME280;6396;58.490;15.528;2023-02-21T08:58:50;99595.22;;;4.55;100.00
12664;BME280;6396;58.490;15.528;2023-02-21T09:01:18;99224.38;;;2.29;100.00
12664;BME280;6396;58.490;15.528;2023-02-21T09:03:45;99643.72;;;4.71;100.00
12664;BME280;6396;58.490;15.528;2023-02-21T09:06:13;99626.34;;;4.20;100.00
12664;BME280;6396;58.490;15.528;2023-02-21T09:08:40;99439.88;;;3.32;100.00
12664;BME280;6396;58.490;15.528;2023-02-21T09:11:07;99536.84;;;3.60;100.00
12664;BME280;6396;58.490;15.528;2023-02-21T09:13:34;99651.66;;;4.16;100.00
12664;BME280;6396;58.490;15.528;2023-02-21T09:16:02;99692.03;;;4.50;100.00
12664;BME280;6396;58.490;15.528;2023-02-21T09:18:30;99534.41;;;3.47;100.00
12664;BME280;6396;58.490;15.528;2023-02-21T09:20:57;99669.84;;;4.22;100.00
12664;BME280;6396;58.490;15.528;2023-02-21T09:23:27;98903.03;;;-0.25;100.00
12664;BME280;6396;58.490;15.528;2023-02-21T09:25:55;99536.78;;;3.63;100.00
12664;BME280;6396;58.490;15.528;2023-02-21T09:28:22;99524.66;;;3.59;100.00
12664;BME280;6396;58.490;15.528;2023-02-21T09:30:53;99575.31;;;4.02;100.00
12664;BME280;6396;58.490;15.528;2023-02-21T09:33:20;99705.94;;;4.52;100.00
12664;BME280;6396;58.490;15.528;2023-02-21T09:35:50;99322.63;;;2.75;100.00
12664;BME280;6396;58.490;15.528;2023-02-21T09:41:33;99486.97;;;3.22;100.00
12664;BME280;6396;58.490;15.528;2023-02-21T09:44:11;99326.88;;;2.80;100.00
12664;BME280;6396;58.490;15.528;2023-02-21T09:46:47;99844.84;;;5.82;100.00
12664;BME280;6396;58.490;15.528;2023-02-21T09:49:29;99836.22;;;5.76;100.00
12664;BME280;6396;58.490;15.528;2023-02-21T09:52:01;98945.91;;;0.73;100.00
12664;BME280;6396;58.490;15.528;2023-02-21T09:54:39;99728.56;;;5.04;100.00
12664;BME280;6396;58.490;15.528;2023-02-21T09:57:23;99298.13;;;2.32;100.00
12664;BME280;6396;58.490;15.528;2023-02-21T09:59:53;99562.50;;;3.86;100.00
12664;BME280;6396;58.490;15.528;2023-02-21T10:02:35;99312.94;;;2.26;100.00
12664;BME280;6396;58.490;15.528;2023-02-21T10:05:26;99914.91;;;5.18;100.00
12664;BME280;6396;58.490;15.528;2023-02-21T10:08:01;99838.94;;;4.72;100.00
12664;BME280;6396;58.490;15.528;2023-02-21T10:10:36;99946.53;;;5.04;100.00
12664;BME280;6396;58.490;15.528;2023-02-21T10:13:21;99898.69;;;4.98;100.00
12664;BME280;6396;58.490;15.528;2023-02-21T10:15:54;99905.59;;;5.02;100.00
12664;BME280;6396;58.490;15.528;2023-02-21T10:18:31;99666.00;;;3.26;100.00
12664;BME280;6396;58.490;15.528;2023-02-21T10:21:08;99972.72;;;5.01;100.00
12664;BME280;6396;58.490;15.528;2023-02-21T10:23:41;99994.66;;;4.93;100.00
12664;BME280;6396;58.490;15.528;2023-02-21T10:26:14;99680.94;;;3.12;100.00
12664;BME280;6396;58.490;15.528;2023-02-21T10:28:43;99814.41;;;3.49;100.00
12664;BME280;6396;58.490;15.528;2023-02-21T10:31:13;99824.56;;;3.76;100.00
12664;BME280;6396;58.490;15.528;2023-02-21T10:33:42;99899.25;;;3.87;100.00
12664;BME280;6396;58.490;15.528;2023-02-21T10:36:11;99684.81;;;2.76;100.00
12664;BME280;6396;58.490;15.528;2023-02-21T10:38:55;99185.00;;;-0.65;100.00
12664;BME280;6396;58.490;15.528;2023-02-21T10:41:26;99984.06;;;4.35;100.00
12664;BME280;6396;58.490;15.528;2023-02-21T10:43:59;100064.09;;;4.43;100.00
12664;BME280;6396;58.490;15.528;2023-02-21T10:46:30;100066.72;;;4.42;100.00
12664;BME280;6396;58.490;15.528;2023-02-21T10:49:16;99877.38;;;3.14;100.00
12664;BME280;6396;58.490;15.528;2023-02-21T10:51:45;100101.72;;;4.26;100.00
12664;BME280;6396;58.490;15.528;2023-02-21T10:54:18;100048.56;;;4.30;100.00
12664;BME280;6396;58.490;15.528;2023-02-21T10:56:46;100037.19;;;4.35;100.00
12664;BME280;6396;58.490;15.528;2023-02-21T10:59:32;99785.84;;;2.43;100.00
12664;BME280;6396;58.490;15.528;2023-02-21T11:04:51;99348.13;;;-0.32;100.00
12664;BME280;6396;58.490;15.528;2023-02-21T11:07:22;99617.38;;;1.34;100.00
12664;BME280;6396;58.490;15.528;2023-02-21T11:09:49;99558.53;;;1.24;100.00
12664;BME280;6396;58.490;15.528;2023-02-21T11:12:22;100124.25;;;4.36;100.00
12664;BME280;6396;58.490;15.528;2023-02-21T11:15:14;100005.78;;;3.48;100.00
12664;BME280;6396;58.490;15.528;2023-02-21T11:17:42;100148.84;;;4.14;100.00
12664;BME280;6396;58.490;15.528;2023-02-21T11:20:17;100000.81;;;3.13;100.00
12664;BME280;6396;58.490;15.528;2023-02-21T11:22:49;99698.78;;;1.50;100.00
12664;BME280;6396;58.490;15.528;2023-02-21T11:25:22;100112.59;;;3.73;100.00
12664;BME280;6396;58.490;15.528;2023-02-21T11:28:03;100191.59;;;4.05;100.00
12664;BME280;6396;58.490;15.528;2023-02-21T11:30:49;100194.25;;;3.96;100.00
12664;BME280;6396;58.490;15.528;2023-02-21T11:33:19;99760.34;;;1.43;100.00
12664;BME280;6396;58.490;15.528;2023-02-21T11:35:48;100176.13;;;3.69;100.00
12664;BME280;6396;58.490;15.528;2023-02-21T11:38:34;99340.38;;;-1.96;100.00
12664;BME280;6396;58.490;15.528;2023-02-21T11:41:28;99658.41;;;0.51;100.00
12664;BME280;6396;58.490;15.528;2023-02-21T11:43:58;100354.47;;;3.82;100.00
12664;BME280;6396;58.490;15.528;2023-02-21T11:46:43;99287.81;;;-2.08;100.00
12664;BME280;6396;58.490;15.528;2023-02-21T11:49:17;100328.38;;;3.80;100.00
12664;BME280;6396;58.490;15.528;2023-02-21T11:51:52;99407.75;;;-1.63;100.00
12664;BME280;6396;58.490;15.528;2023-02-21T11:54:37;100063.66;;;2.51;100.00
12664;BME280;6396;58.490;15.528;2023-02-21T11:57:09;99938.81;;;1.89;100.00
12664;BME280;6396;58.490;15.528;2023-02-21T11:59:45;100140.00;;;2.83;100.00
12664;BME280;6396;58.490;15.528;2023-02-21T12:05:23;100046.34;;;2.17;100.00
12664;BME280;6396;58.490;15.528;2023-02-21T12:11:09;100482.41;;;3.62;100.00
12664;BME280;6396;58.490;15.528;2023-02-21T12:13:46;99981.34;;;1.81;100.00
12664;BME280;6396;58.490;15.528;2023-02-21T12:16:23;99844.41;;;0.35;100.00
12664;BME280;6396;58.490;15.528;2023-02-21T12:19:09;99464.66;;;-1.52;100.00
12664;BME280;6396;58.490;15.528;2023-02-21T12:21:59;99229.84;;;-2.83;100.00
12664;BME280;6396;58.490;15.528;2023-02-21T12:24:41;100474.63;;;3.53;100.00
12664;BME280;6396;58.490;15.528;2023-02-21T12:27:20;99398.19;;;-1.74;100.00
12664;BME280;6396;58.490;15.528;2023-02-21T12:30:19;99759.63;;;0.45;100.00
12664;BME280;6396;58.490;15.528;2023-02-21T12:33:01;99512.09;;;-1.50;100.00
12664;BME280;6396;58.490;15.528;2023-02-21T12:36:07;99278.28;;;-2.26;100.00
12664;BME280;6396;58.490;15.528;2023-02-21T12:38:56;99503.25;;;-2.00;100.00
12664;BME280;6396;58.490;15.528;2023-02-21T12:45:22;100407.59;;;3.64;100.00
12664;BME280;6396;58.490;15.528;2023-02-21T12:47:59;99999.56;;;1.51;100.00
12664;BME280;6396;58.490;15.528;2023-02-21T12:50:29;100357.22;;;3.21;100.00
12664;BME280;6396;58.490;15.528;2023-02-21T12:53:01;100375.41;;;3.50;100.00
12664;BME280;6396;58.490;15.528;2023-02-21T12:55:32;100246.88;;;2.67;100.00
12664;BME280;6396;58.490;15.528;2023-02-21T12:58:03;100374.59;;;3.39;100.00
12664;BME280;6396;58.490;15.528;2023-02-21T13:00:40;100395.47;;;3.40;100.00
12664;BME280;6396;58.490;15.528;2023-02-21T13:03:32;100237.31;;;2.51;100.00
12664;BME280;6396;58.490;15.528;2023-02-21T13:06:07;100396.31;;;3.38;100.00
12664;BME280;6396;58.490;15.528;2023-02-21T13:08:45;100345.94;;;3.07;100.00
12664;BME280;6396;58.490;15.528;2023-02-21T13:11:19;100452.00;;;3.46;100.00
12664;BME280;6396;58.490;15.528;2023-02-21T13:13:47;100365.91;;;3.16;100.00
12664;BME280;6396;58.490;15.528;2023-02-21T13:16:15;100258.16;;;2.42;100.00
12664;BME280;6396;58.490;15.528;2023-02-21T13:18:45;100487.63;;;3.38;100.00
12664;BME280;6396;58.490;15.528;2023-02-21T13:21:23;100518.97;;;3.41;100.00
12664;BME280;6396;58.490;15.528;2023-02-21T13:24:13;100438.06;;;3.32;100.00
12664;BME280;6396;58.490;15.528;2023-02-21T13:26:57;100510.25;;;3.30;100.00
12664;BME280;6396;58.490;15.528;2023-02-21T13:29:28;100038.34;;;0.65;100.00
12664;BME280;6396;58.490;15.528;2023-02-21T13:31:59;100476.34;;;3.27;100.00
12664;BME280;6396;58.490;15.528;2023-02-21T13:34:29;100448.53;;;3.30;100.00
12664;BME280;6396;58.490;15.528;2023-02-21T13:37:00;100446.75;;;3.05;100.00
12664;BME280;6396;58.490;15.528;2023-02-21T13:39:32;99864.91;;;-0.31;100.00
12664;BME280;6396;58.490;15.528;2023-02-21T13:42:05;100305.63;;;1.59;100.00
12664;BME280;6396;58.490;15.528;2023-02-21T13:44:39;100471.97;;;3.11;100.00
12664;BME280;6396;58.490;15.528;2023-02-21T13:47:12;99867.44;;;-0.48;100.00
12664;BME280;6396;58.490;15.528;2023-02-21T13:49:51;100154.56;;;1.03;100.00
12664;BME280;6396;58.490;15.528;2023-02-21T13:55:29;100485.84;;;2.99;100.00
12664;BME280;6396;58.490;15.528;2023-02-21T13:58:41;100398.63;;;1.92;100.00
12664;BME280;6396;58.490;15.528;2023-02-21T14:07:11;100505.81;;;2.87;100.00
12664;BME280;6396;58.490;15.528;2023-02-21T14:09:39;100469.16;;;2.39;100.00
12664;BME280;6396;58.490;15.528;2023-02-21T14:12:08;99938.97;;;-0.72;100.00
12664;BME280;6396;58.490;15.528;2023-02-21T14:14:40;100199.75;;;1.22;100.00
12664;BME280;6396;58.490;15.528;2023-02-21T14:17:09;100515.41;;;2.98;100.00
12664;BME280;6396;58.490;15.528;2023-02-21T14:19:41;99631.34;;;-2.36;100.00
12664;BME280;6396;58.490;15.528;2023-02-21T14:22:12;99703.09;;;-2.13;100.00
12664;BME280;6396;58.490;15.528;2023-02-21T14:24:42;100527.59;;;3.10;100.00
12664;BME280;6396;58.490;15.528;2023-02-21T14:27:31;100531.06;;;3.04;100.00
12664;BME280;6396;58.490;15.528;2023-02-21T14:30:28;100529.31;;;3.05;100.00
12664;BME280;6396;58.490;15.528;2023-02-21T14:35:46;100504.03;;;2.78;100.00
12664;BME280;6396;58.490;15.528;2023-02-21T14:38:19;100560.56;;;2.96;100.00
12664;BME280;6396;58.490;15.528;2023-02-21T14:40:57;100492.72;;;2.69;100.00
12664;BME280;6396;58.490;15.528;2023-02-21T14:43:37;100323.91;;;1.67;100.00
12664;BME280;6396;58.490;15.528;2023-02-21T15:00:24;100595.34;;;2.92;100.00
12664;BME280;6396;58.490;15.528;2023-02-21T15:03:32;99794.72;;;-2.61;100.00
12664;BME280;6396;58.490;15.528;2023-02-21T15:06:10;99898.94;;;-1.93;100.00
12664;BME280;6396;58.490;15.528;2023-02-21T15:08:48;100610.13;;;2.93;100.00
12664;BME280;6396;58.490;15.528;2023-02-21T15:11:24;99748.41;;;-2.44;100.00
12664;BME280;6396;58.490;15.528;2023-02-21T15:14:14;100117.00;;;-0.64;100.00
12664;BME280;6396;58.490;15.528;2023-02-21T15:17:10;100133.09;;;-0.08;100.00
12664;BME280;6396;58.490;15.528;2023-02-21T15:20:08;99696.53;;;-3.31;100.00
12664;BME280;6396;58.490;15.528;2023-02-21T15:23:12;100747.34;;;2.80;100.00
12664;BME280;6396;58.490;15.528;2023-02-21T15:25:39;100519.19;;;1.89;100.00
12664;BME280;6396;58.490;15.528;2023-02-21T15:28:19;100696.91;;;2.77;100.00
12664;BME280;6396;58.490;15.528;2023-02-21T15:30:59;100532.19;;;1.83;100.00
12664;BME280;6396;58.490;15.528;2023-02-21T15:33:31;100663.88;;;2.71;100.00
12664;BME280;6396;58.490;15.528;2023-02-21T15:36:02;100667.34;;;2.75;100.00
12664;BME280;6396;58.490;15.528;2023-02-21T15:38:34;100682.97;;;2.70;100.00
12664;BME280;6396;58.490;15.528;2023-02-21T15:41:15;100697.72;;;2.68;100.00
12664;BME280;6396;58.490;15.528;2023-02-21T15:43:49;99891.44;;;-2.38;100.00
12664;BME280;6396;58.490;15.528;2023-02-21T15:46:23;100685.59;;;2.73;100.00
12664;BME280;6396;58.490;15.528;2023-02-21T15:48:53;100643.72;;;2.43;100.00
12664;BME280;6396;58.490;15.528;2023-02-21T15:51:22;100684.75;;;2.73;100.00
12664;BME280;6396;58.490;15.528;2023-02-21T15:54:07;100690.78;;;2.69;100.00
12664;BME280;6396;58.490;15.528;2023-02-21T15:56:34;100507.66;;;1.56;100.00
12664;BME280;6396;58.490;15.528;2023-02-21T15:59:10;100686.28;;;2.45;100.00
12664;BME280;6396;58.490;15.528;2023-02-21T16:01:38;100710.69;;;2.55;100.00